Time;durP1;ratioP1;P1;durP2;ratioP2;P2;SDS_P1;SDS_P2;PMS_P1;PMS_P2;Temp;Humidity;BMP_temperature;BMP_pressure;BME280_temperature;BME280_humidity;BME280_pressure;Samples;Min_cycle;Max_cycle;Signal;HPM_P1;HPM_P2
2021/01/28 00:02:07;;;;;;;125.41;38.89;;;7.70;99.90;;;9.65;100.00;101012.83;1698561;75;24526;-80
2021/01/28 00:04:25;;;;;;;127.51;40.85;;;7.70;99.90;;;9.73;100.00;101010.81;1690086;75;24470;-79
2021/01/28 00:06:41;;;;;;;119.35;41.07;;;7.70;99.90;;;9.67;100.00;101009.42;1692889;75;24956;-79
2021/01/28 00:08:59;;;;;;;127.96;41.88;;;7.70;99.90;;;9.73;100.00;100998.23;1684265;75;24430;-80
2021/01/28 00:11:17;;;;;;;125.02;40.65;;;7.70;99.90;;;9.69;100.00;101008.15;1690869;75;24445;-80
2021/01/28 00:13:35;;;;;;;133.62;41.07;;;7.70;99.90;;;9.68;100.00;101015.48;1681325;75;25179;-80
2021/01/28 00:15:51;;;;;;;127.46;42.11;;;7.70;99.90;;;9.66;100.00;101021.10;1689742;75;24432;-80
2021/01/28 00:18:12;;;;;;;122.32;42.31;;;7.70;99.90;;;9.68;100.00;101021.56;1693571;75;24453;-79
2021/01/28 00:20:35;;;;;;;124.88;40.19;;;7.70;99.90;;;9.71;100.00;101020.72;1691031;74;25010;-81
2021/01/28 00:22:52;;;;;;;135.38;41.59;;;7.70;99.90;;;9.69;100.00;101018.10;1692101;75;24459;-80
2021/01/28 00:25:16;;;;;;;126.82;41.77;;;7.70;99.90;;;9.74;100.00;101017.76;1701642;75;24482;-79
2021/01/28 00:27:38;;;;;;;126.92;39.95;;;7.70;99.90;;;9.69;100.00;101008.15;1686450;75;24907;-81
2021/01/28 00:29:54;;;;;;;132.54;40.71;;;7.60;99.90;;;9.75;100.00;100996.55;1694343;75;24903;-80
2021/01/28 00:32:13;;;;;;;133.98;42.29;;;7.70;99.90;;;9.80;100.00;100985.80;1694149;75;24428;-79
2021/01/28 00:34:31;;;;;;;125.98;40.68;;;7.70;99.90;;;9.80;100.00;100972.34;1690072;75;24450;-79
2021/01/28 00:36:47;;;;;;;134.89;41.35;;;7.70;99.90;;;9.69;100.00;100973.05;1686381;75;24449;-80
2021/01/28 00:39:12;;;;;;;132.86;40.91;;;7.70;99.90;;;9.71;100.00;100967.01;1684100;75;24936;-79
2021/01/28 00:41:32;;;;;;;136.68;40.51;;;7.70;99.90;;;9.77;100.00;100963.64;1695920;75;24891;-80
2021/01/28 00:43:49;;;;;;;144.24;40.21;;;7.70;99.90;;;9.85;100.00;100955.09;1684593;75;24926;-79
2021/01/28 00:46:10;;;;;;;131.77;40.14;;;7.70;99.90;;;9.80;100.00;100948.09;1694616;74;24924;-80
2021/01/28 00:48:29;;;;;;;144.03;40.89;;;7.70;99.90;;;9.71;100.00;100942.30;1684307;75;24503;-80
2021/01/28 00:50:50;;;;;;;140.21;40.16;;;7.70;99.90;;;9.75;100.00;100939.34;1704991;75;24388;-80
2021/01/28 00:53:12;;;;;;;136.42;40.97;;;7.70;99.90;;;9.76;100.00;100944.56;1694852;75;24394;-80
2021/01/28 00:55:30;;;;;;;127.59;39.04;;;7.70;99.90;;;9.79;100.00;100942.00;1693453;75;24885;-81
2021/01/28 00:57:55;;;;;;;132.93;40.50;;;7.70;99.90;;;9.83;100.00;100939.03;1679066;75;24378;-79
2021/01/28 01:00:21;;;;;;;124.32;40.18;;;7.70;99.90;;;9.83;100.00;100945.08;1689969;75;24930;-80
2021/01/28 01:02:38;;;;;;;126.79;40.37;;;7.70;99.90;;;9.83;100.00;100934.68;1699473;73;24450;-79
2021/01/28 01:04:59;;;;;;;131.91;38.54;;;7.70;99.90;;;9.91;100.00;100930.91;1695252;75;24937;-80
2021/01/28 01:07:18;;;;;;;133.64;38.85;;;7.70;99.90;;;9.80;100.00;100923.38;1683689;74;24515;-81
2021/01/28 01:09:35;;;;;;;131.18;39.12;;;7.70;99.90;;;9.78;100.00;100914.26;1695739;73;24477;-81
2021/01/28 01:11:56;;;;;;;138.72;39.71;;;7.70;99.90;;;9.75;100.00;100913.33;1690251;75;24438;-77
2021/01/28 01:14:17;;;;;;;122.64;37.60;;;7.60;99.90;;;9.72;100.00;100914.59;1656728;75;24467;-80
2021/01/28 01:16:33;;;;;;;124.36;38.90;;;7.60;99.90;;;9.77;100.00;100915.09;1689409;75;24446;-80
2021/01/28 01:18:56;;;;;;;126.66;38.58;;;7.60;99.90;;;9.75;100.00;100912.92;1655426;76;24435;-79
2021/01/28 01:21:17;;;;;;;126.19;38.31;;;7.60;99.90;;;9.73;100.00;100910.71;1645249;74;24490;-81
2021/01/28 01:23:38;;;;;;;118.40;35.80;;;7.60;99.90;;;9.75;100.00;100901.22;1689362;74;24402;-81
2021/01/28 01:26:01;;;;;;;115.80;36.53;;;7.60;99.90;;;9.76;100.00;100893.85;1680034;75;24848;-82
2021/01/28 01:28:20;;;;;;;110.00;37.07;;;7.60;99.90;;;9.73;100.00;100888.61;1693681;75;24927;-82
2021/01/28 01:30:43;;;;;;;103.32;35.91;;;7.60;99.90;;;9.80;100.00;100899.98;1683958;75;24845;-80
2021/01/28 01:33:01;;;;;;;109.40;36.44;;;7.60;99.90;;;9.82;100.00;100895.23;1690497;75;24881;-81
2021/01/28 01:35:28;;;;;;;114.10;36.81;;;7.60;99.90;;;9.81;100.00;100887.41;1691632;75;24841;-79
2021/01/28 01:37:48;;;;;;;106.48;34.82;;;7.60;99.90;;;9.85;100.00;100881.39;1684020;75;25146;-80
2021/01/28 01:40:18;;;;;;;114.24;37.09;;;7.60;99.90;;;9.87;100.00;100876.67;1682278;75;24960;-80
2021/01/28 01:42:36;;;;;;;109.76;37.43;;;7.60;99.90;;;9.86;100.00;100874.94;1691387;75;24484;-78
2021/01/28 01:45:02;;;;;;;110.00;35.49;;;7.60;99.90;;;9.83;100.00;100876.16;1683940;75;24461;-81
2021/01/28 01:47:40;;;;;;;113.26;37.38;;;7.60;99.90;;;9.82;100.00;100878.75;1699806;75;24495;-80
2021/01/28 01:49:57;;;;;;;105.12;32.83;;;7.60;99.90;;;9.78;100.00;100875.67;1690158;75;24863;-80
2021/01/28 01:52:22;;;;;;;116.79;36.77;;;7.60;99.90;;;9.65;100.00;100863.34;1695501;75;24485;-79
2021/01/28 01:54:43;;;;;;;111.91;36.15;;;7.60;99.90;;;9.75;100.00;100863.93;1682450;75;24486;-80
2021/01/28 01:57:05;;;;;;;103.69;36.69;;;7.60;99.90;;;9.79;100.00;100859.20;1695440;74;24909;-80
2021/01/28 01:59:30;;;;;;;110.19;36.09;;;7.60;99.90;;;9.75;100.00;100855.72;1689995;74;24395;-79
2021/01/28 02:04:23;;;;;;;108.53;34.51;;;7.60;99.90;;;9.85;100.00;100848.46;1730077;72;25212;-81
2021/01/28 02:06:58;;;;;;;86.88;32.80;;;7.60;99.90;;;9.83;100.00;100846.26;1659119;74;24829;-79
2021/01/28 02:09:34;;;;;;;92.66;33.92;;;7.60;99.90;;;9.70;100.00;100835.69;1685763;75;24485;-80
2021/01/28 02:11:57;;;;;;;87.79;32.91;;;7.50;99.90;;;9.72;100.00;100828.78;1695775;74;24838;-79
2021/01/28 02:14:32;;;;;;;102.61;33.93;;;7.50;99.90;;;9.71;100.00;100831.80;1680215;75;24422;-81
2021/01/28 02:16:54;;;;;;;107.46;35.95;;;7.50;99.90;;;9.80;100.00;100838.88;1690664;75;24379;-80
2021/01/28 02:19:39;;;;;;;116.12;37.18;;;7.50;99.90;;;9.86;100.00;100828.54;1696135;75;24402;-80
2021/01/28 02:21:58;;;;;;;131.62;38.22;;;7.50;99.90;;;9.74;100.00;100825.34;1700455;75;24459;-80
2021/01/28 02:24:36;;;;;;;103.30;31.24;;;7.50;99.90;;;9.75;100.00;100821.03;1690495;75;24436;-79
2021/01/28 02:26:55;;;;;;;156.69;40.25;;;7.50;99.90;;;9.53;100.00;100805.98;1688036;75;24880;-80
2021/01/28 02:29:40;;;;;;;130.38;38.86;;;7.50;99.90;;;9.58;100.00;100803.88;1688940;75;24477;-79
2021/01/28 02:31:59;;;;;;;161.23;39.80;;;7.50;99.90;;;9.69;100.00;100791.91;1687355;75;24462;-80
2021/01/28 02:34:19;;;;;;;164.84;40.15;;;7.40;99.90;;;9.56;100.00;100782.22;1685130;75;24498;-81
2021/01/28 02:36:48;;;;;;;138.48;37.26;;;7.40;99.90;;;9.56;100.00;100780.03;1687790;75;24457;-80
2021/01/28 02:42:00;;;;;;;174.15;42.28;;;7.30;99.90;;;9.61;100.00;100753.23;1747943;72;25648;-80
2021/01/28 02:44:18;;;;;;;162.60;42.02;;;7.30;99.90;;;9.62;100.00;100748.50;1716236;73;24951;-80
2021/01/28 02:46:49;;;;;;;157.54;41.21;;;7.40;99.90;;;9.55;100.00;100740.61;1670928;74;24564;-80
2021/01/28 02:49:07;;;;;;;165.70;40.47;;;7.30;99.90;;;9.54;100.00;100723.25;1712172;74;24446;-80
2021/01/28 02:51:31;;;;;;;165.07;40.44;;;7.30;99.90;;;9.58;100.00;100734.15;1707161;74;24358;-81
2021/01/28 02:53:53;;;;;;;170.87;42.35;;;7.30;99.90;;;9.63;100.00;100743.73;1707495;74;24440;-79
2021/01/28 02:56:13;;;;;;;160.91;42.57;;;7.30;99.90;;;9.58;100.00;100741.95;1705708;74;24966;-80
2021/01/28 02:58:29;;;;;;;177.85;43.55;;;7.30;99.90;;;9.59;100.00;100750.17;1705864;74;24594;-79
2021/01/28 03:00:50;;;;;;;164.40;42.40;;;7.30;99.90;;;9.68;100.00;100743.78;1700461;74;24479;-81
2021/01/28 03:03:09;;;;;;;149.51;39.53;;;7.30;99.90;;;9.62;100.00;100745.02;1706692;74;24489;-81
2021/01/28 03:05:31;;;;;;;132.87;38.37;;;7.30;99.90;;;9.58;100.00;100744.09;1715590;74;24365;-81
2021/01/28 03:07:52;;;;;;;130.88;38.70;;;7.30;99.90;;;9.54;100.00;100750.13;1709068;74;24531;-80
2021/01/28 03:10:13;;;;;;;159.84;40.69;;;7.30;99.90;;;9.57;100.00;100751.87;1705730;74;24983;-81
2021/01/28 03:12:37;;;;;;;144.37;39.70;;;7.30;99.90;;;9.59;100.00;100752.36;1712447;74;24375;-82
2021/01/28 03:14:57;;;;;;;137.76;37.81;;;7.30;99.90;;;9.62;100.00;100749.80;1702375;74;24919;-80
2021/01/28 03:17:17;;;;;;;128.46;37.73;;;7.30;99.90;;;9.55;100.00;100736.27;1705300;74;24472;-80
2021/01/28 03:19:36;;;;;;;145.03;38.26;;;7.30;99.90;;;9.54;100.00;100735.83;1708965;74;24499;-80
2021/01/28 03:22:06;;;;;;;129.20;36.72;;;7.30;99.90;;;9.57;100.00;100733.27;1711161;74;24886;-80
2021/01/28 03:24:26;;;;;;;106.01;32.90;;;7.30;99.90;;;9.54;100.00;100730.62;1706310;74;24833;-79
2021/01/28 03:26:53;;;;;;;105.82;33.04;;;7.30;99.90;;;9.45;100.00;100725.32;1705111;74;24394;-79
2021/01/28 03:29:12;;;;;;;108.14;32.68;;;7.30;99.90;;;9.43;100.00;100721.83;1705622;74;24441;-79
2021/01/28 03:31:32;;;;;;;118.00;32.08;;;7.30;99.90;;;9.36;100.00;100722.58;1705793;74;24493;-79
2021/01/28 03:33:50;;;;;;;119.58;32.55;;;7.20;99.90;;;9.42;100.00;100721.36;1705867;75;24436;-80
2021/01/28 03:36:10;;;;;;;159.11;37.82;;;7.20;99.90;;;9.34;100.00;100717.81;1708136;74;24377;-80
2021/01/28 03:38:30;;;;;;;228.70;42.41;;;7.20;99.90;;;9.50;100.00;100713.69;1715938;74;24464;-78
2021/01/28 03:40:50;;;;;;;271.51;43.29;;;7.20;99.90;;;9.52;100.00;100717.14;1706054;74;24550;-80
2021/01/28 03:43:11;;;;;;;169.44;38.15;;;7.30;99.90;;;9.48;100.00;100712.78;1681624;75;24423;-81
2021/01/28 03:45:30;;;;;;;162.10;35.91;;;7.30;99.90;;;9.57;100.00;100709.87;1682260;75;24499;-79
2021/01/28 03:47:47;;;;;;;184.83;40.25;;;7.30;99.90;;;9.47;100.00;100712.34;1684367;75;24454;-80
2021/01/28 03:50:14;;;;;;;153.85;38.36;;;7.30;99.90;;;9.49;100.00;100703.70;1666429;75;24384;-79
2021/01/28 03:52:36;;;;;;;179.37;39.55;;;7.30;99.90;;;9.44;100.00;100696.72;1677402;75;24377;-79
2021/01/28 03:54:58;;;;;;;207.34;40.20;;;7.30;99.90;;;9.45;100.00;100691.54;1688445;75;24408;-79
2021/01/28 03:57:21;;;;;;;158.02;37.98;;;7.20;99.90;;;9.42;100.00;100683.67;1681642;75;24372;-81
2021/01/28 03:59:49;;;;;;;180.33;36.21;;;7.20;99.90;;;9.34;100.00;100676.23;1688165;75;24483;-82
2021/01/28 04:02:13;;;;;;;232.60;42.06;;;7.20;99.90;;;9.33;100.00;100674.89;1687577;75;24379;-78
2021/01/28 04:04:48;;;;;;;193.21;41.07;;;7.20;99.90;;;9.39;100.00;100668.50;1691797;75;24543;-80
2021/01/28 04:07:12;;;;;;;209.23;41.52;;;7.20;99.90;;;9.40;100.00;100674.13;1677961;74;24392;-78
2021/01/28 04:09:31;;;;;;;201.60;39.35;;;7.20;99.90;;;9.45;100.00;100665.97;1686083;75;24400;-80
2021/01/28 04:11:52;;;;;;;236.16;43.61;;;7.20;99.90;;;9.46;100.00;100668.58;1688085;75;24829;-80
2021/01/28 04:14:21;;;;;;;246.01;44.99;;;7.20;99.90;;;9.42;100.00;100664.19;1696992;75;24375;-82
2021/01/28 04:16:39;;;;;;;318.76;48.72;;;7.20;99.90;;;9.52;100.00;100662.15;1691841;74;24471;-80
2021/01/28 04:18:55;;;;;;;262.78;45.66;;;7.20;99.90;;;9.46;100.00;100654.28;1686919;75;24906;-79
2021/01/28 04:21:27;;;;;;;263.36;44.29;;;7.20;99.90;;;9.51;100.00;100649.14;1698114;75;24406;-80
2021/01/28 04:23:49;;;;;;;262.48;44.72;;;7.20;99.90;;;9.39;100.00;100643.36;1687461;75;24479;-79
2021/01/28 04:26:15;;;;;;;282.93;47.00;;;7.20;99.90;;;9.41;100.00;100646.86;1694300;75;24603;-80
2021/01/28 04:28:36;;;;;;;320.55;47.11;;;7.20;99.90;;;9.41;100.00;100642.95;1686208;75;24376;-81
2021/01/28 04:30:58;;;;;;;384.71;52.50;;;7.20;99.90;;;9.46;100.00;100634.80;1641376;75;24423;-80
2021/01/28 04:33:17;;;;;;;410.50;53.00;;;7.20;99.90;;;9.49;100.00;100632.64;1687530;75;24491;-79
2021/01/28 04:35:36;;;;;;;297.10;46.99;;;7.20;99.90;;;9.38;100.00;100626.45;1680263;75;24445;-80
2021/01/28 04:37:57;;;;;;;325.03;48.48;;;7.20;99.90;;;9.35;100.00;100617.33;1682857;75;24494;-79
2021/01/28 04:40:30;;;;;;;295.32;44.36;;;7.20;99.90;;;9.32;100.00;100611.68;1683389;75;24364;-79
2021/01/28 04:42:51;;;;;;;313.70;48.54;;;7.20;99.90;;;9.27;100.00;100600.36;1701072;74;24496;-80
2021/01/28 04:45:14;;;;;;;261.60;43.24;;;7.20;99.90;;;9.29;100.00;100590.86;1704956;74;24399;-80
2021/01/28 04:47:31;;;;;;;426.55;53.21;;;7.10;99.90;;;9.35;100.00;100590.92;1704794;74;24443;-79
2021/01/28 04:49:58;;;;;;;347.75;50.51;;;7.10;99.90;;;9.37;100.00;100584.03;1703974;73;24358;-79
2021/01/28 04:52:22;;;;;;;369.89;50.13;;;7.20;99.90;;;9.46;100.00;100572.84;1699321;74;24398;-81
2021/01/28 04:54:49;;;;;;;355.35;51.07;;;7.20;99.90;;;9.54;100.00;100566.88;1698838;74;24369;-78
2021/01/28 04:57:13;;;;;;;394.22;51.87;;;7.20;99.90;;;9.57;100.00;100564.73;1703942;74;24358;-80
2021/01/28 04:59:37;;;;;;;273.26;44.50;;;7.20;99.90;;;9.54;100.00;100551.70;1701051;74;24382;-80
2021/01/28 05:01:55;;;;;;;364.97;48.20;;;7.20;99.90;;;9.53;100.00;100544.77;1679664;75;24503;-81
2021/01/28 05:04:26;;;;;;;240.12;41.17;;;7.20;99.90;;;9.46;100.00;100552.94;1698015;74;24848;-79
2021/01/28 05:06:55;;;;;;;335.61;46.92;;;7.20;99.90;;;9.34;100.00;100538.95;1700949;74;24885;-80
2021/01/28 05:09:31;;;;;;;330.74;46.92;;;7.20;99.90;;;9.38;100.00;100529.02;1703399;74;24365;-80
2021/01/28 05:12:00;;;;;;;346.93;47.61;;;7.10;99.90;;;9.39;100.00;100523.83;1671944;74;24464;-80
2021/01/28 05:14:34;;;;;;;280.65;42.42;;;7.10;99.90;;;9.34;100.00;100512.55;1710559;74;24454;-80
2021/01/28 05:16:58;;;;;;;329.27;45.45;;;7.10;99.90;;;9.30;100.00;100512.47;1655634;75;24496;-80
2021/01/28 05:19:41;;;;;;;224.27;39.43;;;7.10;99.90;;;9.25;100.00;100504.63;1701390;74;24440;-79
2021/01/28 05:22:26;;;;;;;261.49;41.60;;;7.10;99.90;;;9.26;100.00;100491.23;1713274;74;24452;-80
2021/01/28 05:25:00;;;;;;;188.96;35.50;;;7.10;99.90;;;9.23;100.00;100486.00;1698607;74;24387;-81
2021/01/28 05:27:29;;;;;;;205.35;38.49;;;7.00;99.90;;;9.18;100.00;100472.97;1703166;74;24898;-79
2021/01/28 05:29:51;;;;;;;247.50;39.68;;;7.00;99.90;;;9.25;100.00;100476.51;1700134;74;25002;-79
2021/01/28 05:32:15;;;;;;;215.76;37.73;;;7.00;99.90;;;9.22;100.00;100470.83;1702551;74;24491;-80
2021/01/28 05:34:52;;;;;;;173.15;34.94;;;7.00;99.90;;;9.12;100.00;100459.90;1702373;75;24358;-82
2021/01/28 05:37:15;;;;;;;185.14;35.09;;;7.00;99.90;;;9.12;100.00;100456.88;1708688;74;24900;-79
2021/01/28 05:39:42;;;;;;;143.53;32.15;;;7.00;99.90;;;9.12;100.00;100453.41;1649486;75;24446;-79
2021/01/28 05:42:23;;;;;;;152.94;33.73;;;7.00;99.90;;;9.17;100.00;100450.02;1709840;74;24484;-80
2021/01/28 05:44:41;;;;;;;140.14;31.94;;;7.00;99.90;;;9.17;100.00;100450.02;1715894;74;24503;-80
2021/01/28 05:47:07;;;;;;;156.64;32.05;;;7.00;99.90;;;9.09;100.00;100439.97;1704885;75;24481;-79
2021/01/28 05:49:42;;;;;;;179.22;34.32;;;6.90;99.90;;;8.98;100.00;100432.92;1717248;74;24446;-80
2021/01/28 05:52:13;;;;;;;187.32;34.62;;;6.90;99.90;;;8.93;100.00;100419.05;1718572;74;24396;-79
2021/01/28 05:54:38;;;;;;;137.01;31.08;;;6.90;99.90;;;8.86;100.00;100406.84;1709499;74;24839;-80
2021/01/28 05:57:37;;;;;;;93.04;27.31;;;6.90;99.90;;;8.96;100.00;100401.75;1709238;74;24934;-79
2021/01/28 06:00:05;;;;;;;111.83;30.21;;;6.80;99.90;;;8.89;100.00;100397.78;1715776;73;24476;-79
2021/01/28 06:02:55;;;;;;;100.87;28.45;;;6.80;99.90;;;8.92;100.00;100399.11;1719530;73;24409;-81
2021/01/28 06:05:41;;;;;;;85.62;26.29;;;6.80;99.90;;;8.81;100.00;100402.02;1714138;73;24554;-79
2021/01/28 06:08:25;;;;;;;87.28;26.98;;;6.70;99.90;;;8.76;100.00;100395.91;1715681;73;24374;-79
2021/01/28 06:11:08;;;;;;;87.34;26.13;;;6.70;99.90;;;8.75;100.00;100391.58;1724452;73;24468;-82
2021/01/28 06:14:03;;;;;;;80.42;25.11;;;6.70;99.90;;;8.79;100.00;100386.86;1661806;73;24444;-79
2021/01/28 06:16:43;;;;;;;72.29;25.26;;;6.70;99.90;;;8.71;100.00;100379.45;1726344;73;24872;-78
2021/01/28 06:19:54;;;;;;;76.70;24.56;;;6.70;99.90;;;8.74;100.00;100371.69;1717485;73;24476;-80
2021/01/28 06:22:21;;;;;;;66.93;23.80;;;6.70;99.90;;;8.78;100.00;100369.13;1723809;73;24439;-79
2021/01/28 06:25:31;;;;;;;63.16;23.49;;;6.60;99.90;;;8.60;100.00;100360.30;1718483;73;24791;-78
2021/01/28 06:28:21;;;;;;;66.11;22.43;;;6.60;99.90;;;8.69;100.00;100360.38;1715952;73;24437;-79
2021/01/28 06:30:53;;;;;;;61.49;21.00;;;6.60;99.90;;;8.65;100.00;100357.30;1717034;74;24501;-81
2021/01/28 06:33:55;;;;;;;61.02;21.51;;;6.60;99.90;;;8.60;100.00;100351.21;1706854;74;24449;-80
2021/01/28 06:37:02;;;;;;;52.59;19.65;;;6.60;99.90;;;8.62;100.00;100342.58;1720013;73;24896;-82
2021/01/28 06:39:40;;;;;;;50.30;18.89;;;6.50;99.90;;;8.55;100.00;100344.65;1723353;73;24394;-80
2021/01/28 06:42:15;;;;;;;48.81;19.60;;;6.50;99.90;;;8.59;100.00;100338.66;1725638;73;24438;-82
2021/01/28 06:44:42;;;;;;;51.47;19.27;;;6.50;99.90;;;8.61;100.00;100331.77;1704483;74;24378;-79
2021/01/28 06:47:14;;;;;;;49.22;19.03;;;6.50;99.90;;;8.60;100.00;100329.16;1708038;74;24370;-78
2021/01/28 06:49:57;;;;;;;43.86;17.68;;;6.50;99.90;;;8.63;100.00;100333.92;1705520;74;24389;-78
2021/01/28 06:52:31;;;;;;;43.31;18.11;;;6.50;99.90;;;8.67;100.00;100322.73;1705399;74;24440;-79
2021/01/28 06:55:03;;;;;;;40.90;17.75;;;6.50;99.90;;;8.57;100.00;100319.59;1712060;74;24456;-77
2021/01/28 06:57:39;;;;;;;43.31;17.56;;;6.50;99.90;;;8.54;100.00;100309.61;1706632;74;24381;-79
2021/01/28 07:00:10;;;;;;;37.18;16.38;;;6.50;99.90;;;8.47;100.00;100300.04;1711786;74;24417;-79
2021/01/28 07:02:49;;;;;;;31.99;15.57;;;6.50;99.90;;;8.48;100.00;100309.13;1709074;73;24436;-80
2021/01/28 07:09:02;;;;;;;33.28;14.82;;;6.50;99.90;;;8.62;100.00;100292.39;1732565;72;25272;-77
2021/01/28 07:11:46;;;;;;;33.59;15.09;;;6.50;99.90;;;8.52;100.00;100282.80;1695389;74;24453;-75
2021/01/28 07:14:22;;;;;;;30.78;14.41;;;6.50;99.90;;;8.50;100.00;100278.89;1704335;74;24838;-74
2021/01/28 07:16:59;;;;;;;32.49;14.68;;;6.50;99.90;;;8.50;100.00;100275.42;1709642;74;24395;-75
2021/01/28 07:19:22;;;;;;;31.99;14.85;;;6.50;99.90;;;8.47;100.00;100268.45;1708077;74;24425;-75
2021/01/28 07:21:45;;;;;;;31.23;14.96;;;6.50;99.90;;;8.51;100.00;100258.98;1714523;74;24523;-75
2021/01/28 07:24:12;;;;;;;29.89;14.30;;;6.40;99.90;;;8.58;100.00;100249.97;1711617;74;24446;-76
2021/01/28 07:26:55;;;;;;;32.62;15.11;;;6.50;99.90;;;8.54;100.00;100237.83;1715250;73;25146;-75
2021/01/28 07:29:57;;;;;;;33.44;15.14;;;6.50;99.90;;;8.54;100.00;100231.77;1710701;73;24477;-77
2021/01/28 07:32:17;;;;;;;29.02;15.87;;;6.50;99.90;;;8.56;100.00;100222.27;1708928;74;24541;-74
2021/01/28 07:35:20;;;;;;;35.14;16.89;;;6.50;99.90;;;8.46;100.00;100216.55;1673336;75;24908;-75
2021/01/28 07:37:36;;;;;;;28.85;15.62;;;6.40;99.90;;;8.42;100.00;100207.91;1712310;74;24468;-75
2021/01/28 07:42:43;;;;;;;30.80;15.81;;;6.50;99.90;;;8.42;100.00;100196.64;1741344;72;25626;-75
2021/01/28 07:45:24;;;;;;;29.85;14.25;;;6.40;99.90;;;8.41;100.00;100197.06;1715565;73;25157;-75
2021/01/28 07:48:04;;;;;;;28.91;14.59;;;6.50;99.90;;;8.32;100.00;100192.22;1708811;73;24382;-80
2021/01/28 07:50:41;;;;;;;28.52;14.77;;;6.40;99.90;;;8.36;100.00;100185.77;1677801;75;24391;-79
2021/01/28 07:53:23;;;;;;;28.81;13.73;;;6.40;99.90;;;8.46;100.00;100189.31;1706628;74;24519;-81
2021/01/28 07:55:45;;;;;;;28.58;13.51;;;6.40;99.90;;;8.33;100.00;100185.75;1713611;74;24914;-81
2021/01/28 07:58:06;;;;;;;27.05;13.72;;;6.40;99.90;;;8.41;100.00;100186.69;1710470;74;24424;-82
2021/01/28 08:00:24;;;;;;;27.79;13.70;;;6.40;99.90;;;8.31;100.00;100186.60;1707716;74;24448;-78
2021/01/28 08:02:41;;;;;;;26.64;13.09;;;6.40;99.90;;;8.31;100.00;100184.02;1707768;74;24477;-77
2021/01/28 08:05:09;;;;;;;25.58;13.24;;;6.40;99.90;;;8.32;100.00;100177.95;1708187;73;24546;-80
2021/01/28 08:07:30;;;;;;;23.73;12.75;;;6.50;99.90;;;8.29;100.00;100178.81;1707583;73;24508;-79
2021/01/28 08:10:12;;;;;;;24.30;12.39;;;6.40;99.90;;;8.21;100.00;100176.54;1709091;73;24521;-79
2021/01/28 08:12:33;;;;;;;22.46;11.39;;;6.40;99.90;;;8.30;100.00;100173.20;1710442;74;24509;-77
2021/01/28 08:14:55;;;;;;;22.17;12.15;;;6.40;99.90;;;8.35;100.00;100171.49;1703739;73;24545;-79
2021/01/28 08:17:28;;;;;;;21.57;11.38;;;6.40;99.90;;;8.37;100.00;100169.37;1709339;73;24630;-76
2021/01/28 08:19:44;;;;;;;20.39;11.25;;;6.50;99.90;;;8.25;100.00;100166.66;1703538;73;24888;-77
2021/01/28 08:22:09;;;;;;;19.51;11.31;;;6.40;99.90;;;8.23;100.00;100162.32;1709169;73;24939;-77
2021/01/28 08:24:36;;;;;;;20.84;10.93;;;6.40;99.90;;;8.23;100.00;100159.73;1704726;74;24517;-78
2021/01/28 08:26:53;;;;;;;19.14;10.48;;;6.40;99.90;;;8.23;100.00;100153.25;1704432;74;24497;-80
2021/01/28 08:29:17;;;;;;;19.96;10.52;;;6.40;99.90;;;8.27;100.00;100150.69;1703515;75;25317;-79
2021/01/28 08:31:44;;;;;;;19.57;11.02;;;6.40;99.90;;;8.28;100.00;100151.56;1703608;74;24568;-77
2021/01/28 08:34:05;;;;;;;18.66;10.97;;;6.40;99.90;;;8.27;100.00;100149.39;1714464;74;24449;-81
2021/01/28 08:36:28;;;;;;;21.39;11.04;;;6.40;99.90;;;8.23;100.00;100145.47;1708707;74;24508;-81
2021/01/28 08:38:47;;;;;;;19.53;10.12;;;6.40;99.90;;;8.29;100.00;100142.50;1710249;74;24461;-81
2021/01/28 08:41:27;;;;;;;18.92;11.02;;;6.40;99.90;;;8.30;100.00;100134.30;1706583;74;24581;-77
2021/01/28 08:43:51;;;;;;;19.82;10.34;;;6.40;99.90;;;8.26;100.00;100135.11;1705370;74;24607;-77
2021/01/28 08:46:18;;;;;;;16.18;9.63;;;6.40;99.90;;;8.28;100.00;100133.41;1702762;74;25840;-80
2021/01/28 08:48:38;;;;;;;16.49;9.92;;;6.40;99.90;;;8.18;100.00;100126.36;1703930;74;24522;-79
2021/01/28 08:51:14;;;;;;;15.62;9.26;;;6.40;99.90;;;8.21;100.00;100122.08;1704806;74;24530;-79
2021/01/28 08:53:34;;;;;;;15.48;9.55;;;6.40;99.90;;;8.35;100.00;100125.69;1709511;74;24950;-80
2021/01/28 08:55:53;;;;;;;16.48;9.97;;;6.40;99.90;;;8.28;100.00;100112.66;1702647;74;24488;-75
2021/01/28 08:58:19;;;;;;;16.33;9.60;;;6.40;99.90;;;8.33;100.00;100110.53;1712797;74;24591;-80
2021/01/28 09:00:41;;;;;;;15.75;8.95;;;6.40;99.90;;;8.18;100.00;100103.91;1706623;74;24731;-78
2021/01/28 09:03:02;;;;;;;16.51;9.43;;;6.40;99.90;;;8.24;100.00;100107.88;1708472;74;24970;-81
2021/01/28 09:05:29;;;;;;;15.99;8.71;;;6.40;99.90;;;8.25;100.00;100105.70;1707446;74;24540;-77
2021/01/28 09:07:54;;;;;;;14.91;9.04;;;6.40;99.90;;;8.25;100.00;100099.67;1702803;74;24480;-80
2021/01/28 09:10:18;;;;;;;14.60;9.00;;;6.40;99.90;;;8.21;100.00;100093.97;1709495;74;24500;-80
2021/01/28 09:12:38;;;;;;;15.38;8.76;;;6.40;99.90;;;8.30;100.00;100092.35;1706450;73;24585;-79
2021/01/28 09:15:14;;;;;;;14.83;8.76;;;6.40;99.90;;;8.19;100.00;100094.41;1714597;73;24424;-76
2021/01/28 09:17:37;;;;;;;13.02;8.94;;;6.40;99.90;;;8.14;100.00;100087.86;1705802;74;24519;-82
2021/01/28 09:20:01;;;;;;;13.95;8.51;;;6.30;99.90;;;8.24;100.00;100090.14;1702467;74;25009;-79
2021/01/28 09:22:38;;;;;;;15.40;11.10;;;6.40;99.90;;;8.13;100.00;100093.04;1707724;74;24497;-81
2021/01/28 09:27:45;;;;;;;18.03;12.66;;;6.30;99.90;;;8.36;100.00;100076.83;1731521;72;25847;-78
2021/01/28 09:30:28;;;;;;;18.79;12.87;;;6.30;99.90;;;8.15;100.00;100077.95;1684529;75;24508;-78
2021/01/28 09:32:44;;;;;;;16.45;12.34;;;6.30;99.90;;;8.16;100.00;100076.20;1680869;73;24925;-79
2021/01/28 09:35:18;;;;;;;19.43;13.30;;;6.30;99.90;;;8.21;100.00;100068.92;1690279;73;25031;-77
2021/01/28 09:39:55;;;;;;;20.17;14.18;;;6.30;99.90;;;8.27;100.00;100064.22;1795946;70;33047;-77
2021/01/28 09:42:28;;;;;;;20.86;14.31;;;6.40;99.90;;;8.18;100.00;100069.31;1786647;71;24508;-76
2021/01/28 09:44:49;;;;;;;21.62;13.87;;;6.40;99.90;;;8.16;100.00;100069.73;1769204;71;24488;-76
2021/01/28 09:47:16;;;;;;;20.47;14.25;;;6.40;99.90;;;8.21;100.00;100060.26;1778712;70;24426;-79
2021/01/28 09:49:33;;;;;;;19.76;13.92;;;6.40;99.90;;;8.20;100.00;100062.42;1767906;70;24477;-81
2021/01/28 09:51:49;;;;;;;21.81;14.32;;;6.40;99.90;;;8.28;100.00;100057.78;1776822;70;24482;-76
2021/01/28 09:54:18;;;;;;;21.08;13.99;;;6.40;99.90;;;8.37;100.00;100057.84;1768376;71;24952;-75
2021/01/28 09:56:35;;;;;;;22.77;14.34;;;6.50;99.90;;;8.39;100.00;100064.33;1774113;70;25034;-75
2021/01/28 09:58:55;;;;;;;22.74;15.46;;;6.50;99.90;;;8.25;100.00;100060.77;1782662;70;24915;-76
2021/01/28 10:01:12;;;;;;;22.61;14.80;;;6.50;99.90;;;8.32;100.00;100062.53;1780406;70;24517;-75
2021/01/28 10:03:29;;;;;;;19.56;14.99;;;6.50;99.90;;;8.31;100.00;100054.33;1768015;70;24579;-79
2021/01/28 10:05:51;;;;;;;21.85;14.82;;;6.50;99.90;;;8.39;100.00;100052.66;1776588;70;24609;-81
2021/01/28 10:08:08;;;;;;;21.55;14.54;;;6.50;99.90;;;8.43;100.00;100042.72;1775892;71;24878;-77
2021/01/28 10:10:29;;;;;;;21.06;14.74;;;6.60;99.90;;;8.35;100.00;100040.09;1777075;70;24664;-78
2021/01/28 10:12:47;;;;;;;21.51;14.50;;;6.60;99.90;;;8.47;100.00;100036.71;1772116;70;25140;-80
2021/01/28 10:15:06;;;;;;;18.90;14.00;;;6.60;99.90;;;8.33;100.00;100038.36;1782940;71;25704;-78
2021/01/28 10:17:24;;;;;;;20.61;14.55;;;6.60;99.90;;;8.28;100.00;100038.33;1772522;70;25212;-78